Time;durP1;ratioP1;P1;durP2;ratioP2;P2;SDS_P1;SDS_P2;PMS_P1;PMS_P2;Temp;Humidity;BMP_temperature;BMP_pressure;BME280_temperature;BME280_humidity;BME280_pressure;Samples;Min_cycle;Max_cycle;Signal;HPM_P1;HPM_P2
2023/05/03 00:04:53;;;;;;;35.30;20.60;;;23.30;62.60;;;;;;222646;1262;24257;-51
2023/05/03 00:09:58;;;;;;;31.70;21.20;;;23.30;61.70;;;;;;222436;1264;26233;-53
2023/05/03 00:15:03;;;;;;;30.70;20.00;;;23.30;61.80;;;;;;222455;1257;26516;-54
2023/05/03 00:20:08;;;;;;;31.40;20.60;;;23.30;61.80;;;;;;222605;1264;22525;-55
2023/05/03 00:25:14;;;;;;;26.50;19.10;;;23.20;62.10;;;;;;222499;1254;22624;-56
2023/05/03 00:30:18;;;;;;;26.00;19.20;;;23.30;62.20;;;;;;222405;1258;22514;-54
2023/05/03 00:35:22;;;;;;;25.20;18.80;;;23.20;62.40;;;;;;222741;1265;22520;-53
2023/05/03 00:40:27;;;;;;;29.20;18.50;;;23.20;61.90;;;;;;222839;1267;22497;-56
2023/05/03 00:45:33;;;;;;;26.70;18.30;;;23.20;62.00;;;;;;222527;1264;24215;-55
2023/05/03 00:50:38;;;;;;;25.30;18.10;;;23.10;61.90;;;;;;222289;1257;25140;-55
2023/05/03 00:55:44;;;;;;;27.70;19.00;;;23.10;62.00;;;;;;222753;1267;24425;-50
2023/05/03 01:00:48;;;;;;;23.60;17.00;;;23.10;61.90;;;;;;222256;1264;22515;-55
2023/05/03 01:06:12;;;;;;;25.10;17.60;;;23.10;62.00;;;;;;222595;1264;22518;-52
2023/05/03 01:11:25;;;;;;;24.90;16.80;;;23.10;62.30;;;;;;223018;1264;22509;-55
2023/05/03 01:16:39;;;;;;;22.10;16.10;;;23.00;61.90;;;;;;222792;1264;22517;-51
2023/05/03 01:21:51;;;;;;;22.50;16.30;;;23.00;62.20;;;;;;222447;1264;22513;-54
2023/05/03 01:26:56;;;;;;;23.20;16.50;;;23.00;61.90;;;;;;222600;1266;24308;-55
2023/05/03 01:32:04;;;;;;;22.30;15.90;;;23.00;61.90;;;;;;222832;1263;24348;-55
2023/05/03 01:37:11;;;;;;;22.60;16.00;;;23.00;62.00;;;;;;222901;1254;23272;-57
2023/05/03 01:42:16;;;;;;;20.90;15.10;;;23.00;61.90;;;;;;222800;1269;22557;-51
2023/05/03 01:47:22;;;;;;;18.20;13.50;;;22.90;61.90;;;;;;222895;1258;22559;-56
2023/05/03 01:52:26;;;;;;;18.50;13.60;;;23.10;62.80;;;;;;222661;1268;22801;-54
2023/05/03 01:57:31;;;;;;;18.40;13.90;;;23.40;62.10;;;;;;222877;1264;22508;-53
2023/05/03 02:02:35;;;;;;;19.00;13.50;;;23.60;60.80;;;;;;222674;1267;26296;-58
2023/05/03 02:07:39;;;;;;;15.50;12.10;;;23.90;60.10;;;;;;222473;1269;22655;-53
2023/05/03 02:12:44;;;;;;;15.30;11.40;;;24.00;59.80;;;;;;222343;1269;255507;-54
2023/05/03 02:17:49;;;;;;;15.30;12.00;;;24.10;59.50;;;;;;222995;1263;26563;-58
2023/05/03 02:22:54;;;;;;;13.40;11.40;;;24.10;59.20;;;;;;222424;1264;24438;-59
2023/05/03 02:27:58;;;;;;;13.60;11.40;;;24.20;59.10;;;;;;222311;1263;24218;-53
2023/05/03 02:33:02;;;;;;;14.50;11.40;;;24.30;58.90;;;;;;222282;1263;25278;-54
2023/05/03 02:38:07;;;;;;;14.20;10.80;;;24.40;58.90;;;;;;222591;1269;24714;-51
2023/05/03 02:43:12;;;;;;;14.30;11.20;;;24.50;58.40;;;;;;222989;1263;24257;-55
2023/05/03 02:48:17;;;;;;;13.90;10.90;;;24.60;58.20;;;;;;222361;1260;22656;-55
2023/05/03 02:53:21;;;;;;;14.50;11.40;;;24.70;58.10;;;;;;222533;1264;22527;-56
2023/05/03 02:58:27;;;;;;;13.30;10.30;;;24.70;58.20;;;;;;222392;1267;22751;-50
2023/05/03 03:03:32;;;;;;;15.30;10.40;;;24.80;57.70;;;;;;222764;1263;22511;-54
2023/05/03 03:08:37;;;;;;;12.80;9.70;;;24.70;58.20;;;;;;222503;1257;22613;-55
2023/05/03 03:13:41;;;;;;;12.00;10.00;;;24.60;58.10;;;;;;222959;1263;25226;-54
2023/05/03 03:18:46;;;;;;;13.70;9.90;;;24.50;58.50;;;;;;222381;1269;25285;-53
2023/05/03 03:23:51;;;;;;;10.70;9.30;;;24.40;58.80;;;;;;222190;1261;22763;-50
2023/05/03 03:28:55;;;;;;;12.20;9.60;;;24.50;58.50;;;;;;222353;1263;22606;-53
2023/05/03 03:34:00;;;;;;;12.50;9.40;;;24.50;58.50;;;;;;222317;1265;25466;-53
2023/05/03 03:39:05;;;;;;;11.00;9.00;;;24.40;58.60;;;;;;222289;1254;24301;-52
2023/05/03 03:44:10;;;;;;;10.00;8.70;;;24.30;58.60;;;;;;222528;1269;22564;-54
2023/05/03 03:49:14;;;;;;;11.10;8.50;;;24.30;58.20;;;;;;222853;1263;25300;-53
2023/05/03 03:54:18;;;;;;;12.70;8.70;;;24.30;58.20;;;;;;222238;1259;22577;-54
2023/05/03 03:59:23;;;;;;;9.80;8.50;;;24.20;58.30;;;;;;222735;1257;22509;-54
2023/05/03 04:04:30;;;;;;;10.80;8.20;;;24.10;60.50;;;;;;222776;1261;22511;-54
2023/05/03 04:09:34;;;;;;;11.40;8.70;;;24.00;58.90;;;;;;222846;1264;24403;-53
2023/05/03 04:14:39;;;;;;;10.60;8.20;;;23.90;58.80;;;;;;222830;1266;22629;-52
2023/05/03 04:19:44;;;;;;;8.80;7.50;;;23.90;59.00;;;;;;222886;1269;22559;-52
2023/05/03 04:24:49;;;;;;;9.10;7.80;;;23.90;58.90;;;;;;222762;1263;22633;-54
2023/05/03 04:29:53;;;;;;;9.90;8.10;;;23.80;59.40;;;;;;222684;1266;22648;-51
2023/05/03 04:34:59;;;;;;;8.80;7.80;;;23.70;59.00;;;;;;222626;1263;22557;-54
2023/05/03 04:40:08;;;;;;;9.80;7.80;;;23.70;59.00;;;;;;222823;1262;23429;-54
2023/05/03 04:45:14;;;;;;;10.80;7.90;;;23.70;59.20;;;;;;222947;1266;23834;-55
2023/05/03 04:50:19;;;;;;;8.20;7.40;;;23.60;59.40;;;;;;222843;1258;24212;-53
2023/05/03 04:55:25;;;;;;;8.20;7.30;;;23.60;59.50;;;;;;222917;1264;24045;-52
2023/05/03 05:00:30;;;;;;;8.20;6.80;;;23.50;59.70;;;;;;222775;1263;22778;-53
2023/05/03 05:05:39;;;;;;;9.60;7.70;;;23.50;60.00;;;;;;222819;1263;22630;-54
2023/05/03 05:10:45;;;;;;;7.80;7.00;;;23.40;59.90;;;;;;222519;1256;22599;-52
2023/05/03 05:15:52;;;;;;;9.10;7.10;;;23.40;60.00;;;;;;222472;1256;24247;-50
2023/05/03 05:21:04;;;;;;;8.30;7.20;;;23.40;60.00;;;;;;222405;1267;22554;-55
2023/05/03 05:26:11;;;;;;;8.60;7.00;;;23.40;60.60;;;;;;222776;1254;25217;-52
2023/05/03 05:31:16;;;;;;;7.90;7.10;;;23.30;60.10;;;;;;222838;1255;22501;-51
2023/05/03 05:36:21;;;;;;;8.20;6.80;;;23.30;60.00;;;;;;223086;1266;24234;-54
2023/05/03 05:41:26;;;;;;;7.90;7.00;;;23.30;60.00;;;;;;222943;1263;22515;-53
2023/05/03 05:46:30;;;;;;;9.20;6.10;;;23.30;60.10;;;;;;222358;1263;22521;-55
2023/05/03 05:51:35;;;;;;;6.70;6.10;;;23.30;60.10;;;;;;222956;1256;25449;-53
2023/05/03 05:56:40;;;;;;;6.50;5.90;;;23.20;60.00;;;;;;222788;1263;22538;-53
2023/05/03 06:01:45;;;;;;;7.30;6.00;;;23.20;60.10;;;;;;222758;1268;22716;-52
2023/05/03 06:06:53;;;;;;;7.10;6.10;;;23.20;60.60;;;;;;222959;1266;24372;-54
2023/05/03 06:11:57;;;;;;;6.70;6.10;;;23.20;60.10;;;;;;222777;1268;24224;-53
2023/05/03 06:17:04;;;;;;;6.10;5.60;;;23.20;60.10;;;;;;222597;1258;22784;-55
2023/05/03 06:22:08;;;;;;;6.40;5.70;;;23.20;60.10;;;;;;222678;1256;25319;-51
2023/05/03 06:27:13;;;;;;;6.90;5.20;;;23.20;60.10;;;;;;222743;1266;22516;-54
2023/05/03 06:32:18;;;;;;;8.20;5.80;;;23.20;60.20;;;;;;222970;1266;22508;-51
2023/05/03 06:37:22;;;;;;;5.60;5.00;;;23.20;60.00;;;;;;222856;1261;24042;-53
2023/05/03 06:42:26;;;;;;;6.80;5.70;;;23.10;60.00;;;;;;222658;1265;24180;-52
2023/05/03 06:47:41;;;;;;;6.70;5.70;;;23.10;60.00;;;;;;222859;1266;25507;-53
2023/05/03 06:52:46;;;;;;;6.00;5.40;;;23.10;59.80;;;;;;222787;1268;22519;-51
2023/05/03 06:57:51;;;;;;;6.00;5.40;;;23.10;60.00;;;;;;222888;1260;22758;-56
2023/05/03 07:02:56;;;;;;;6.20;5.60;;;23.10;59.90;;;;;;222541;1263;22634;-54
2023/05/03 07:08:02;;;;;;;6.60;5.30;;;23.10;60.30;;;;;;222516;1256;24308;-53
2023/05/03 07:13:08;;;;;;;8.90;5.40;;;23.30;59.40;;;;;;222436;1260;25872;-51
2023/05/03 07:18:12;;;;;;;5.90;5.40;;;23.60;59.10;;;;;;222885;1266;22747;-51
2023/05/03 07:23:17;;;;;;;6.60;5.20;;;23.80;58.60;;;;;;222510;1263;22508;-53
2023/05/03 07:28:22;;;;;;;6.10;4.80;;;24.00;58.10;;;;;;222381;1268;24204;-50
2023/05/03 07:33:26;;;;;;;4.90;4.40;;;24.00;57.80;;;;;;222457;1263;22630;-53
2023/05/03 07:38:32;;;;;;;5.40;4.90;;;24.00;57.80;;;;;;222644;1261;22601;-52
2023/05/03 07:43:37;;;;;;;4.90;4.50;;;24.10;57.90;;;;;;222418;1262;25271;-52
2023/05/03 07:48:42;;;;;;;24.60;15.00;;;24.10;58.30;;;;;;222517;1257;24334;-49
2023/05/03 07:53:46;;;;;;;81.70;42.20;;;24.10;58.30;;;;;;222526;1255;22511;-55
2023/05/03 07:58:50;;;;;;;119.80;58.80;;;24.10;58.50;;;;;;222524;1266;22511;-50
2023/05/03 08:04:11;;;;;;;129.10;64.90;;;24.20;58.70;;;;;;222494;1263;22512;-54
2023/05/03 08:09:17;;;;;;;142.00;71.70;;;24.30;59.00;;;;;;222405;1268;22510;-54
2023/05/03 08:14:22;;;;;;;109.20;56.20;;;24.30;59.00;;;;;;222585;1265;25374;-53
2023/05/03 08:19:27;;;;;;;105.30;50.70;;;24.30;58.60;;;;;;222638;1263;23014;-54
2023/05/03 08:24:33;;;;;;;94.50;46.00;;;24.40;59.80;;;;;;222713;1254;22521;-53
2023/05/03 08:29:38;;;;;;;90.50;47.10;;;24.40;59.30;;;;;;222398;1263;24209;-50
2023/05/03 08:34:43;;;;;;;77.90;42.40;;;24.30;59.50;;;;;;222862;1265;22518;-53
2023/05/03 08:39:47;;;;;;;74.60;41.70;;;24.20;60.20;;;;;;222922;1263;25322;-54
2023/05/03 08:44:53;;;;;;;78.60;42.30;;;24.20;60.00;;;;;;222903;1264;24170;-51
2023/05/03 08:49:58;;;;;;;71.90;39.90;;;24.20;60.00;;;;;;222655;1259;22507;-49
2023/05/03 08:55:06;;;;;;;67.90;37.60;;;24.20;60.10;;;;;;222590;1267;24273;-52
2023/05/03 09:00:13;;;;;;;72.70;39.60;;;24.10;60.00;;;;;;223062;1253;22642;-55
2023/05/03 09:05:17;;;;;;;67.90;39.10;;;24.30;60.00;;;;;;222995;1265;25444;-55
2023/05/03 09:10:25;;;;;;;72.00;35.60;;;24.20;59.30;;;;;;223107;1263;26623;-54
2023/05/03 09:15:31;;;;;;;63.40;34.40;;;24.30;59.80;;;;;;222590;1263;24181;-50
2023/05/03 09:20:38;;;;;;;65.90;31.50;;;24.20;59.10;;;;;;222933;1264;22576;-54
2023/05/03 09:25:52;;;;;;;76.80;33.50;;;24.20;58.10;;;;;;222877;1263;22509;-54
2023/05/03 09:31:06;;;;;;;59.50;31.10;;;24.30;59.00;;;;;;222450;1263;25663;-53
2023/05/03 09:36:10;;;;;;;55.00;31.60;;;24.30;58.80;;;;;;222798;1261;25236;-55
2023/05/03 09:41:15;;;;;;;54.20;28.10;;;24.30;58.80;;;;;;222679;1254;25371;-57
2023/05/03 09:46:20;;;;;;;52.20;28.90;;;24.30;58.50;;;;;;222870;1253;22541;-52
2023/05/03 09:51:26;;;;;;;48.50;27.10;;;24.30;58.30;;;;;;222833;1263;22619;-55
2023/05/03 09:56:30;;;;;;;57.80;29.00;;;24.30;59.10;;;;;;223183;1263;23905;-57
2023/05/03 10:01:35;;;;;;;55.00;27.40;;;24.30;58.30;;;;;;222578;1266;22465;-53
2023/05/03 10:06:43;;;;;;;49.90;27.60;;;24.30;59.10;;;;;;222528;1263;23880;-53
2023/05/03 10:11:51;;;;;;;47.30;26.10;;;24.20;58.90;;;;;;222526;1263;25363;-53
2023/05/03 10:17:03;;;;;;;40.50;24.90;;;24.20;59.30;;;;;;222688;1265;24238;-49
2023/05/03 10:22:10;;;;;;;42.30;25.40;;;24.30;59.00;;;;;;222611;1257;22673;-54
2023/05/03 10:27:16;;;;;;;42.40;25.00;;;24.50;58.00;;;;;;222904;1260;25560;-53
2023/05/03 10:32:29;;;;;;;38.70;23.80;;;24.40;58.40;;;;;;222522;1253;23397;-52
2023/05/03 10:37:37;;;;;;;42.10;23.30;;;24.30;58.50;;;;;;222556;1263;24203;-54
2023/05/03 10:42:55;;;;;;;35.70;22.00;;;24.30;58.50;;;;;;222488;1266;22550;-54
2023/05/03 10:48:11;;;;;;;32.30;20.40;;;24.30;58.20;;;;;;222780;1264;22623;-53
2023/05/03 10:53:35;;;;;;;32.20;20.30;;;24.30;58.30;;;;;;222910;1246;23924;-53
2023/05/03 10:58:45;;;;;;;37.60;20.80;;;24.30;58.50;;;;;;222851;1263;22515;-55
2023/05/03 11:04:10;;;;;;;49.60;21.70;;;24.30;58.70;;;;;;222419;1266;24173;-54
2023/05/03 11:09:16;;;;;;;34.80;18.80;;;24.30;58.20;;;;;;222981;1268;23150;-54
2023/05/03 11:14:20;;;;;;;28.20;17.50;;;24.40;57.50;;;;;;222528;1263;25312;-52
2023/05/03 11:19:50;;;;;;;33.10;17.50;;;24.30;57.30;;;;;;222518;1263;24193;-54
2023/05/03 11:24:56;;;;;;;27.60;15.50;;;24.30;56.60;;;;;;222709;1266;24326;-50
2023/05/03 11:30:00;;;;;;;32.00;16.00;;;24.40;55.30;;;;;;225493;1269;23789;-49
2023/05/03 11:35:08;;;;;;;18.80;13.70;;;24.40;54.80;;;;;;223170;1266;25558;-52
2023/05/03 11:40:16;;;;;;;23.20;13.70;;;24.40;54.90;;;;;;223225;1261;24236;-50
2023/05/03 11:45:28;;;;;;;20.30;13.90;;;24.40;54.90;;;;;;222707;1265;22640;-52
2023/05/03 11:50:53;;;;;;;22.00;12.80;;;24.30;55.00;;;;;;222859;1269;22531;-50
2023/05/03 11:55:57;;;;;;;22.80;12.80;;;24.40;55.10;;;;;;223225;1263;22518;-52
2023/05/03 12:01:02;;;;;;;18.60;12.60;;;24.40;55.00;;;;;;222728;1269;22522;-53
2023/05/03 12:06:07;;;;;;;18.90;11.70;;;24.30;54.80;;;;;;222384;1269;22646;-51
2023/05/03 12:11:13;;;;;;;22.30;12.50;;;24.30;55.00;;;;;;222479;1269;22519;-54
2023/05/03 12:16:21;;;;;;;20.70;12.00;;;24.30;55.20;;;;;;222305;1256;24150;-54
2023/05/03 12:21:47;;;;;;;20.00;11.50;;;24.30;54.90;;;;;;222465;1269;22504;-54
2023/05/03 12:26:54;;;;;;;17.10;11.60;;;24.30;54.80;;;;;;222360;1269;24183;-51
2023/05/03 12:32:01;;;;;;;17.20;11.20;;;24.40;54.80;;;;;;222458;1257;22508;-50
2023/05/03 12:37:08;;;;;;;17.70;11.60;;;24.30;54.60;;;;;;222180;1269;22508;-53
2023/05/03 12:42:14;;;;;;;15.60;10.50;;;24.30;54.50;;;;;;222685;1266;24184;-53
2023/05/03 12:47:19;;;;;;;15.30;10.50;;;24.40;54.50;;;;;;222634;1268;22627;-56
2023/05/03 12:52:31;;;;;;;14.10;10.60;;;24.30;54.70;;;;;;222760;1263;22563;-52
2023/05/03 12:57:41;;;;;;;12.90;9.90;;;24.40;54.30;;;;;;222783;1266;24334;-53
2023/05/03 13:02:49;;;;;;;13.70;10.20;;;24.40;54.20;;;;;;222519;1266;22722;-51
2023/05/03 13:07:57;;;;;;;16.90;9.80;;;24.40;54.90;;;;;;222517;1268;25338;-51
2023/05/03 13:13:10;;;;;;;14.20;9.90;;;24.30;54.10;;;;;;222669;1263;22502;-56
2023/05/03 13:18:15;;;;;;;16.50;9.70;;;24.40;54.20;;;;;;222275;1269;25208;-52
2023/05/03 13:23:19;;;;;;;11.20;8.40;;;24.30;54.00;;;;;;222521;1269;22517;-51
2023/05/03 13:28:23;;;;;;;12.30;8.50;;;24.40;54.20;;;;;;222580;1269;25383;-53
2023/05/03 13:33:28;;;;;;;11.40;8.50;;;24.40;53.90;;;;;;222655;1269;22522;-54
2023/05/03 13:38:32;;;;;;;13.80;9.10;;;24.30;54.10;;;;;;222550;1262;24188;-54
2023/05/03 13:43:36;;;;;;;12.30;8.90;;;24.30;53.60;;;;;;222130;1269;24201;-50
2023/05/03 13:48:41;;;;;;;12.80;8.00;;;24.20;53.80;;;;;;222548;1263;25315;-55
2023/05/03 13:53:46;;;;;;;14.20;8.10;;;24.30;54.10;;;;;;222536;1269;22648;-60
2023/05/03 13:58:50;;;;;;;14.00;8.00;;;24.30;54.80;;;;;;222557;1263;22514;-57
2023/05/03 14:03:55;;;;;;;27.70;7.70;;;24.30;55.40;;;;;;222636;1266;24186;-56
2023/05/03 14:09:00;;;;;;;14.40;8.70;;;24.30;55.00;;;;;;222761;1263;22520;-58
2023/05/03 14:14:05;;;;;;;16.30;12.30;;;24.50;56.20;;;;;;222710;1266;214318;-57
2023/05/03 14:19:10;;;;;;;17.00;11.20;;;24.60;56.00;;;;;;222554;1269;23878;-59
2023/05/03 14:24:15;;;;;;;13.90;11.20;;;24.70;55.30;;;;;;222723;1268;22522;-58
2023/05/03 14:29:20;;;;;;;13.10;10.70;;;24.60;55.30;;;;;;222788;1269;22503;-54
2023/05/03 14:34:27;;;;;;;14.60;11.00;;;24.60;55.50;;;;;;222861;1263;24253;-54
2023/05/03 14:39:32;;;;;;;93.80;49.10;;;24.50;56.40;;;;;;222841;1254;22707;-57
2023/05/03 14:44:36;;;;;;;206.30;107.60;;;24.30;57.20;;;;;;222527;1268;22511;-57
2023/05/03 14:49:40;;;;;;;205.00;104.70;;;24.30;56.80;;;;;;222859;1266;24948;-55
2023/05/03 14:54:45;;;;;;;330.80;169.10;;;24.30;56.80;;;;;;222510;1264;22689;-58
2023/05/03 14:59:51;;;;;;;186.70;96.10;;;24.40;56.90;;;;;;222871;1266;23786;-56
2023/05/03 15:04:55;;;;;;;169.40;89.30;;;24.50;56.80;;;;;;222575;1268;22499;-59
2023/05/03 15:10:03;;;;;;;149.70;73.50;;;24.40;56.80;;;;;;222623;1256;24121;-56
2023/05/03 15:15:10;;;;;;;107.10;61.80;;;24.40;56.30;;;;;;222846;1268;25984;-59
2023/05/03 15:20:15;;;;;;;107.40;59.10;;;24.50;55.60;;;;;;222836;1264;22534;-56
2023/05/03 15:25:20;;;;;;;112.90;58.20;;;24.60;55.30;;;;;;222677;1269;24262;-50
2023/05/03 15:30:24;;;;;;;91.60;51.10;;;24.50;55.60;;;;;;222605;1268;22509;-51
2023/05/03 15:35:29;;;;;;;94.40;49.00;;;24.40;54.20;;;;;;223058;1269;24215;-50
2023/05/03 15:40:34;;;;;;;83.10;46.30;;;24.40;54.50;;;;;;222471;1258;22567;-52
2023/05/03 15:45:39;;;;;;;84.70;46.90;;;24.20;53.90;;;;;;225457;1263;25522;-50
2023/05/03 15:50:43;;;;;;;88.30;46.90;;;24.30;54.40;;;;;;223076;1266;25462;-55
2023/05/03 15:55:48;;;;;;;78.70;43.80;;;24.20;54.50;;;;;;222929;1266;24039;-50
2023/05/03 16:00:54;;;;;;;69.90;41.30;;;24.10;54.50;;;;;;222593;1259;22568;-54
2023/05/03 16:06:00;;;;;;;49.80;28.90;;;24.00;54.50;;;;;;222418;1260;23771;-53
2023/05/03 16:11:06;;;;;;;47.10;26.60;;;24.00;50.00;;;;;;222545;1266;25474;-56
2023/05/03 16:16:12;;;;;;;47.90;27.40;;;23.90;50.50;;;;;;222509;1263;24221;-54
2023/05/03 16:21:16;;;;;;;45.20;22.80;;;24.00;51.50;;;;;;222252;1262;22507;-57
2023/05/03 16:26:21;;;;;;;45.80;22.30;;;23.90;50.60;;;;;;222334;1261;23096;-58
2023/05/03 16:31:29;;;;;;;29.90;17.70;;;24.00;51.20;;;;;;222285;1264;24234;-56
2023/05/03 16:36:41;;;;;;;35.40;18.70;;;24.00;50.90;;;;;;222406;1262;24192;-58
2023/05/03 16:41:49;;;;;;;30.10;16.30;;;23.90;49.80;;;;;;222277;1262;23020;-57
2023/05/03 16:46:54;;;;;;;27.60;16.60;;;24.10;49.40;;;;;;222623;1266;25346;-52
2023/05/03 16:51:58;;;;;;;30.50;17.30;;;24.00;49.20;;;;;;222751;1264;22656;-54
2023/05/03 16:57:03;;;;;;;25.10;17.40;;;24.00;48.20;;;;;;222358;1266;24396;-56
2023/05/03 17:02:07;;;;;;;28.80;18.10;;;23.90;47.80;;;;;;222568;1266;22507;-54
2023/05/03 17:07:13;;;;;;;32.10;18.20;;;23.90;48.50;;;;;;222212;1269;24477;-51
2023/05/03 17:12:20;;;;;;;25.20;17.20;;;23.90;48.50;;;;;;222359;1266;24218;-53
2023/05/03 17:17:24;;;;;;;25.40;18.20;;;23.90;48.60;;;;;;222305;1263;25300;-50
2023/05/03 17:22:28;;;;;;;26.80;17.50;;;24.00;49.50;;;;;;222443;1257;25331;-57
2023/05/03 17:27:33;;;;;;;23.40;16.50;;;23.90;49.80;;;;;;222598;1266;25316;-50
2023/05/03 17:32:37;;;;;;;22.30;14.30;;;24.00;49.70;;;;;;222268;1266;22525;-52
2023/05/03 17:37:44;;;;;;;21.40;14.90;;;24.10;49.90;;;;;;222388;1247;24187;-51
2023/05/03 17:42:49;;;;;;;23.60;14.20;;;24.00;50.60;;;;;;222299;1265;22649;-48
2023/05/03 17:47:53;;;;;;;20.80;14.00;;;24.00;50.80;;;;;;222195;1268;25324;-56
2023/05/03 17:52:58;;;;;;;25.30;14.30;;;24.20;51.30;;;;;;222057;1264;22521;-50
2023/05/03 17:58:05;;;;;;;21.00;13.60;;;24.30;51.00;;;;;;222388;1266;23964;-50
2023/05/03 18:03:11;;;;;;;18.20;12.80;;;24.30;50.80;;;;;;222112;1264;22642;-54
2023/05/03 18:08:17;;;;;;;21.10;12.70;;;24.20;51.00;;;;;;222594;1263;22699;-53
2023/05/03 18:13:22;;;;;;;21.10;12.50;;;24.10;52.10;;;;;;222612;1264;26963;-54
2023/05/03 18:18:31;;;;;;;19.10;12.30;;;24.10;51.60;;;;;;221981;1269;23145;-55
2023/05/03 18:23:35;;;;;;;16.90;11.90;;;24.00;51.80;;;;;;222621;1264;22649;-55
2023/05/03 18:28:41;;;;;;;16.90;11.00;;;24.10;51.60;;;;;;222388;1263;22596;-54
2023/05/03 18:33:47;;;;;;;25.00;12.50;;;24.10;52.00;;;;;;222475;1264;25910;-53
2023/05/03 18:38:56;;;;;;;19.30;10.40;;;23.90;52.10;;;;;;222372;1260;22893;-52
2023/05/03 18:44:06;;;;;;;14.60;10.30;;;24.00;51.60;;;;;;222114;1253;26506;-56
2023/05/03 18:49:17;;;;;;;15.90;10.40;;;23.90;52.00;;;;;;222109;1266;22514;-53
2023/05/03 18:54:22;;;;;;;15.80;9.50;;;23.80;52.90;;;;;;222842;1256;22563;-57
2023/05/03 18:59:30;;;;;;;16.00;9.10;;;23.80;52.80;;;;;;222300;1256;24973;-55
2023/05/03 19:04:36;;;;;;;11.80;8.90;;;23.70;52.40;;;;;;224911;1264;23129;-53
2023/05/03 19:09:42;;;;;;;250.70;167.80;;;23.90;51.90;;;;;;222952;1269;24196;-53
2023/05/03 19:14:47;;;;;;;205.50;146.70;;;23.90;52.00;;;;;;222209;1263;26502;-58
2023/05/03 19:19:54;;;;;;;173.30;115.70;;;23.90;51.80;;;;;;222475;1256;23129;-58
2023/05/03 19:25:00;;;;;;;156.10;107.80;;;23.90;52.00;;;;;;222463;1264;24339;-55
2023/05/03 19:30:10;;;;;;;135.40;92.50;;;23.90;50.10;;;;;;222808;1254;22515;-57
2023/05/03 19:35:16;;;;;;;126.20;87.50;;;23.90;49.70;;;;;;221295;1267;22640;-61
2023/05/03 19:40:24;;;;;;;122.00;86.90;;;23.70;51.20;;;;;;221401;1273;22721;-58
2023/05/03 19:45:31;;;;;;;115.10;84.40;;;23.70;51.80;;;;;;221320;1272;25217;-58
2023/05/03 19:50:37;;;;;;;119.70;82.10;;;23.90;52.60;;;;;;221423;1262;22526;-57
2023/05/03 19:56:01;;;;;;;110.20;78.20;;;23.90;52.80;;;;;;221264;1264;25282;-59
2023/05/03 20:01:07;;;;;;;106.60;78.60;;;23.80;52.80;;;;;;222217;1258;22599;-56
2023/05/03 20:06:13;;;;;;;108.90;74.10;;;23.90;53.40;;;;;;222127;1264;22599;-59
2023/05/03 20:11:18;;;;;;;101.60;72.20;;;24.00;52.70;;;;;;222163;1266;22648;-56
2023/05/03 20:16:31;;;;;;;92.40;68.60;;;24.10;52.90;;;;;;222306;1267;25673;-59
2023/05/03 20:21:37;;;;;;;93.90;69.90;;;24.00;52.30;;;;;;221930;1267;22535;-55
2023/05/03 20:26:46;;;;;;;84.50;62.60;;;24.10;52.20;;;;;;221964;1248;24229;-56
2023/05/03 20:31:52;;;;;;;64.70;47.60;;;24.00;52.40;;;;;;222173;1264;22626;-54
2023/05/03 20:36:57;;;;;;;71.20;51.30;;;24.00;52.70;;;;;;222353;1262;24210;-58
2023/05/03 20:42:02;;;;;;;101.40;67.60;;;23.90;52.60;;;;;;222353;1260;23886;-56
2023/05/03 20:47:06;;;;;;;222.50;128.70;;;23.90;52.70;;;;;;222550;1254;23905;-58
2023/05/03 20:52:11;;;;;;;228.50;125.80;;;23.80;53.10;;;;;;222133;1264;22505;-57
2023/05/03 20:57:15;;;;;;;217.00;119.60;;;23.70;53.20;;;;;;222109;1263;23290;-57
2023/05/03 21:02:20;;;;;;;168.80;100.00;;;23.70;53.00;;;;;;222455;1266;22640;-58
2023/05/03 21:07:27;;;;;;;172.70;103.30;;;23.70;53.60;;;;;;222577;1260;22522;-55
2023/05/03 21:12:32;;;;;;;164.70;98.70;;;23.60;53.60;;;;;;222536;1264;24305;-56
2023/05/03 21:17:36;;;;;;;146.20;90.50;;;23.60;53.40;;;;;;222744;1266;22644;-56
2023/05/03 21:22:41;;;;;;;152.80;87.20;;;23.70;53.80;;;;;;222421;1263;22954;-56
2023/05/03 21:27:46;;;;;;;154.80;88.20;;;23.60;54.60;;;;;;222426;1257;22551;-58
2023/05/03 21:32:52;;;;;;;141.60;83.10;;;23.60;54.20;;;;;;222594;1264;23732;-58
2023/05/03 21:37:58;;;;;;;141.90;83.50;;;23.70;57.00;;;;;;222307;1254;24191;-56
2023/05/03 21:43:04;;;;;;;142.50;84.00;;;23.70;58.50;;;;;;222643;1256;22597;-57
2023/05/03 21:48:09;;;;;;;130.40;82.60;;;23.70;58.40;;;;;;222551;1269;25507;-59
2023/05/03 21:53:15;;;;;;;131.90;81.00;;;23.80;58.60;;;;;;222389;1253;22517;-63
2023/05/03 21:58:20;;;;;;;136.00;81.90;;;23.70;58.80;;;;;;222439;1254;24724;-59
2023/05/03 22:03:25;;;;;;;122.20;79.40;;;23.70;58.90;;;;;;221617;1273;25469;-62
2023/05/03 22:08:30;;;;;;;118.30;75.80;;;23.70;59.10;;;;;;221500;1256;23902;-57
2023/05/03 22:13:36;;;;;;;119.10;73.70;;;23.80;58.90;;;;;;221476;1270;25293;-59
2023/05/03 22:19:01;;;;;;;114.80;72.90;;;23.70;59.20;;;;;;221820;1267;22531;-58
2023/05/03 22:24:07;;;;;;;111.30;71.40;;;23.70;59.10;;;;;;221570;1259;22934;-60
2023/05/03 22:29:12;;;;;;;115.10;72.70;;;23.70;59.30;;;;;;221481;1268;22531;-61
2023/05/03 22:34:18;;;;;;;108.30;70.60;;;23.70;59.50;;;;;;222159;1263;22588;-58
2023/05/03 22:39:22;;;;;;;107.10;71.40;;;23.70;59.40;;;;;;222711;1263;25252;-57
2023/05/03 22:44:28;;;;;;;107.90;73.60;;;23.70;59.40;;;;;;222302;1263;26646;-57
2023/05/03 22:49:32;;;;;;;104.80;70.80;;;23.60;60.10;;;;;;222409;1263;22535;-60
2023/05/03 22:54:36;;;;;;;101.20;69.90;;;23.70;59.70;;;;;;222286;1264;22620;-58
2023/05/03 22:59:45;;;;;;;98.10;66.40;;;23.60;59.50;;;;;;222522;1263;22689;-59
2023/05/03 23:04:50;;;;;;;98.50;64.60;;;23.60;59.30;;;;;;222597;1263;22634;-59
2023/05/03 23:10:02;;;;;;;97.90;65.90;;;23.60;59.10;;;;;;222856;1263;22610;-59
2023/05/03 23:15:07;;;;;;;99.90;63.80;;;23.70;58.90;;;;;;222843;1263;26502;-59
2023/05/03 23:20:12;;;;;;;92.60;61.10;;;23.70;58.80;;;;;;222559;1263;22981;-61
2023/05/03 23:25:16;;;;;;;84.70;59.00;;;23.50;58.80;;;;;;222754;1263;24212;-58
2023/05/03 23:30:21;;;;;;;87.80;59.60;;;23.50;58.90;;;;;;222674;1256;24388;-60
2023/05/03 23:35:26;;;;;;;79.10;54.20;;;23.40;58.70;;;;;;222608;1263;22530;-57
2023/05/03 23:40:30;;;;;;;81.80;56.00;;;23.40;59.00;;;;;;223499;1264;24184;-59
2023/05/03 23:45:35;;;;;;;82.90;55.60;;;23.40;58.60;;;;;;222592;1263;25306;-59
2023/05/03 23:50:40;;;;;;;80.40;53.50;;;23.40;58.80;;;;;;221784;1265;22644;-58
2023/05/03 23:55:45;;;;;;;84.70;53.40;;;23.30;58.80;;;;;;221720;1259;24232;-59
